Portada
METAR-TAF:

METAR-TAF

Aeroports :

Kuala Terengganu, Malàisia

latitud: 05-22-53N, longitud: 103-06-17E, altitud: 6 m

Observació

L'informe es va fer fa 24 minuts, a les 07:00 UTC
Vent 7 kt del Est/Nord-Est, variant entre Nord i Est/Sud-Est
Temperatura 32°C
Humitat 67%
Pressió 1006 hPa
Visibilitat 10 km o més
Escasses núvols a una alçada de 1800 ft
Cel ennuvolat a una alçada de 30000 ft

METAR: WMKN 230700Z 06007KT 010V120 9999 FEW018 BKN300 32/25 Q1006

Hora: 15:24 (07:24 UTC)

Pronòstic

L'informe es va fer fa 2 hores i 24 minuts, a les 05:00 UTC
Pronòstic vàlid del 23 a les 06 UTC al 24 a les 06 UTC
Vent 3 kt amb direcció variable
Visibilitat 10 km o més
Escasses núvols a una alçada de 1800 ft

TAF: WMKN 230500Z 2306/2406 VRB03KT 9999 FEW018

Observacions i pronòstics meteorològics de més de 4000 aeroports (METAR i TAF).

Les estacions disponibles són els punts grocs i vermells al mapa.

Posi el ratolí al punt desitjat per veure el nom de l'estació.

Feu clic per veure les observacions i els pronòstics meteorològics.

Per canviar el mapa: feu clic els botons verds amb una creu de color negre per apropar; al botó verd amb un guió per allunyar la imatge; o en les fletxes verdes per a mapes adjacents.


METAR-TAF: